sensor_id;sensor_type;location;lat;lon;timestamp;temperature;humidity
29575;DHT22;16507;51.046;6.406;2022-12-31T00:00:06;13.80;99.90
29575;DHT22;16507;51.046;6.406;2022-12-31T00:02:32;13.80;99.90
29575;DHT22;16507;51.046;6.406;2022-12-31T00:04:58;13.80;99.90
29575;DHT22;16507;51.046;6.406;2022-12-31T00:07:23;13.80;99.90
29575;DHT22;16507;51.046;6.406;2022-12-31T00:09:49;13.90;99.90
29575;DHT22;16507;51.046;6.406;2022-12-31T00:12:14;14.00;99.90
29575;DHT22;16507;51.046;6.406;2022-12-31T00:14:40;14.10;99.90
29575;DHT22;16507;51.046;6.406;2022-12-31T00:17:05;14.10;99.90
29575;DHT22;16507;51.046;6.406;2022-12-31T00:19:31;14.20;99.90
29575;DHT22;16507;51.046;6.406;2022-12-31T00:21:56;14.20;99.90
29575;DHT22;16507;51.046;6.406;2022-12-31T00:24:22;14.20;99.90
29575;DHT22;16507;51.046;6.406;2022-12-31T00:26:47;14.20;99.90
29575;DHT22;16507;51.046;6.406;2022-12-31T00:29:13;14.20;99.90
29575;DHT22;16507;51.046;6.406;2022-12-31T00:31:38;14.40;99.90
29575;DHT22;16507;51.046;6.406;2022-12-31T00:34:04;14.40;99.90
29575;DHT22;16507;51.046;6.406;2022-12-31T00:36:34;14.50;99.90
29575;DHT22;16507;51.046;6.406;2022-12-31T00:39:00;14.50;99.90
29575;DHT22;16507;51.046;6.406;2022-12-31T00:41:27;14.50;99.90
29575;DHT22;16507;51.046;6.406;2022-12-31T00:43:53;14.60;99.90
29575;DHT22;16507;51.046;6.406;2022-12-31T00:46:19;14.60;99.90
29575;DHT22;16507;51.046;6.406;2022-12-31T00:48:44;14.60;99.90
29575;DHT22;16507;51.046;6.406;2022-12-31T00:51:11;14.70;99.90
29575;DHT22;16507;51.046;6.406;2022-12-31T00:53:37;14.70;99.90
29575;DHT22;16507;51.046;6.406;2022-12-31T00:56:04;14.70;99.90
29575;DHT22;16507;51.046;6.406;2022-12-31T00:58:30;14.80;99.90
29575;DHT22;16507;51.046;6.406;2022-12-31T01:00:55;15.00;99.90
29575;DHT22;16507;51.046;6.406;2022-12-31T01:03:21;15.00;99.90
29575;DHT22;16507;51.046;6.406;2022-12-31T01:05:47;15.10;99.90
29575;DHT22;16507;51.046;6.406;2022-12-31T01:08:12;15.10;99.90
29575;DHT22;16507;51.046;6.406;2022-12-31T01:10:38;15.20;99.90
29575;DHT22;16507;51.046;6.406;2022-12-31T01:13:22;15.30;99.90
29575;DHT22;16507;51.046;6.406;2022-12-31T01:15:47;15.40;99.90
29575;DHT22;16507;51.046;6.406;2022-12-31T01:18:13;15.50;99.90
29575;DHT22;16507;51.046;6.406;2022-12-31T01:20:39;15.40;99.90
29575;DHT22;16507;51.046;6.406;2022-12-31T01:23:06;15.30;99.90
29575;DHT22;16507;51.046;6.406;2022-12-31T01:25:38;15.40;99.90
29575;DHT22;16507;51.046;6.406;2022-12-31T01:28:04;15.20;99.90
29575;DHT22;16507;51.046;6.406;2022-12-31T01:30:30;15.00;99.90
29575;DHT22;16507;51.046;6.406;2022-12-31T01:32:55;15.20;99.90
29575;DHT22;16507;51.046;6.406;2022-12-31T01:35:21;15.40;99.90
29575;DHT22;16507;51.046;6.406;2022-12-31T01:37:46;15.70;99.90
29575;DHT22;16507;51.046;6.406;2022-12-31T01:40:12;15.50;99.90
29575;DHT22;16507;51.046;6.406;2022-12-31T01:42:38;15.00;99.90
29575;DHT22;16507;51.046;6.406;2022-12-31T01:45:08;14.90;99.90
29575;DHT22;16507;51.046;6.406;2022-12-31T01:47:36;15.40;99.90
29575;DHT22;16507;51.046;6.406;2022-12-31T01:50:07;15.00;99.90
29575;DHT22;16507;51.046;6.406;2022-12-31T01:52:39;14.80;99.90
29575;DHT22;16507;51.046;6.406;2022-12-31T01:55:12;14.80;99.90
29575;DHT22;16507;51.046;6.406;2022-12-31T01:57:39;15.20;99.90
29575;DHT22;16507;51.046;6.406;2022-12-31T02:00:05;15.30;99.90
29575;DHT22;16507;51.046;6.406;2022-12-31T02:02:31;15.30;99.90
29575;DHT22;16507;51.046;6.406;2022-12-31T02:04:57;15.30;99.90
29575;DHT22;16507;51.046;6.406;2022-12-31T02:07:24;15.30;99.90
29575;DHT22;16507;51.046;6.406;2022-12-31T02:09:49;15.40;99.90
29575;DHT22;16507;51.046;6.406;2022-12-31T02:12:15;15.40;99.90
29575;DHT22;16507;51.046;6.406;2022-12-31T02:14:44;15.40;99.90
29575;DHT22;16507;51.046;6.406;2022-12-31T02:23:30;15.40;99.90
29575;DHT22;16507;51.046;6.406;2022-12-31T02:25:33;15.30;99.90
29575;DHT22;16507;51.046;6.406;2022-12-31T02:30:26;15.30;99.90
29575;DHT22;16507;51.046;6.406;2022-12-31T02:33:08;15.30;99.90
29575;DHT22;16507;51.046;6.406;2022-12-31T02:38:08;15.40;99.90
29575;DHT22;16507;51.046;6.406;2022-12-31T02:40:35;15.40;99.90
29575;DHT22;16507;51.046;6.406;2022-12-31T02:43:01;15.40;99.90
29575;DHT22;16507;51.046;6.406;2022-12-31T02:45:28;15.40;99.90
29575;DHT22;16507;51.046;6.406;2022-12-31T02:47:59;15.50;99.90
29575;DHT22;16507;51.046;6.406;2022-12-31T02:50:38;15.50;99.90
29575;DHT22;16507;51.046;6.406;2022-12-31T02:53:25;15.50;99.90
29575;DHT22;16507;51.046;6.406;2022-12-31T02:55:57;15.50;99.90
29575;DHT22;16507;51.046;6.406;2022-12-31T02:58:30;15.60;99.90
29575;DHT22;16507;51.046;6.406;2022-12-31T03:01:17;15.00;99.90
29575;DHT22;16507;51.046;6.406;2022-12-31T03:04:03;14.80;99.90
29575;DHT22;16507;51.046;6.406;2022-12-31T03:06:47;14.80;99.90
29575;DHT22;16507;51.046;6.406;2022-12-31T03:09:13;15.30;99.90
29575;DHT22;16507;51.046;6.406;2022-12-31T03:11:39;15.40;99.90
29575;DHT22;16507;51.046;6.406;2022-12-31T03:14:23;15.40;99.90
29575;DHT22;16507;51.046;6.406;2022-12-31T03:16:49;15.50;99.90
29575;DHT22;16507;51.046;6.406;2022-12-31T03:19:14;15.20;99.90
29575;DHT22;16507;51.046;6.406;2022-12-31T03:21:58;15.20;99.90
29575;DHT22;16507;51.046;6.406;2022-12-31T03:24:43;14.70;99.90
29575;DHT22;16507;51.046;6.406;2022-12-31T03:27:27;14.80;99.90
29575;DHT22;16507;51.046;6.406;2022-12-31T03:29:52;14.80;99.90
29575;DHT22;16507;51.046;6.406;2022-12-31T03:32:18;14.90;99.90
29575;DHT22;16507;51.046;6.406;2022-12-31T03:34:43;14.90;99.90
29575;DHT22;16507;51.046;6.406;2022-12-31T03:37:09;15.10;99.90
29575;DHT22;16507;51.046;6.406;2022-12-31T03:39:34;15.00;99.90
29575;DHT22;16507;51.046;6.406;2022-12-31T03:42:00;15.00;99.90
29575;DHT22;16507;51.046;6.406;2022-12-31T03:44:25;15.00;99.90
29575;DHT22;16507;51.046;6.406;2022-12-31T03:46:51;14.80;99.90
29575;DHT22;16507;51.046;6.406;2022-12-31T03:49:16;14.80;99.90
29575;DHT22;16507;51.046;6.406;2022-12-31T03:51:42;14.80;99.90
29575;DHT22;16507;51.046;6.406;2022-12-31T03:54:07;15.00;99.90
29575;DHT22;16507;51.046;6.406;2022-12-31T03:56:33;14.90;99.90
29575;DHT22;16507;51.046;6.406;2022-12-31T03:58:58;15.00;99.90
29575;DHT22;16507;51.046;6.406;2022-12-31T04:01:24;15.10;99.90
29575;DHT22;16507;51.046;6.406;2022-12-31T04:03:49;15.10;99.90
29575;DHT22;16507;51.046;6.406;2022-12-31T04:06:15;15.00;99.90
29575;DHT22;16507;51.046;6.406;2022-12-31T04:08:40;15.10;99.90
29575;DHT22;16507;51.046;6.406;2022-12-31T04:11:06;15.10;99.90
29575;DHT22;16507;51.046;6.406;2022-12-31T04:13:31;15.20;99.90
29575;DHT22;16507;51.046;6.406;2022-12-31T04:15:57;14.50;99.90
29575;DHT22;16507;51.046;6.406;2022-12-31T04:18:22;14.50;99.90
29575;DHT22;16507;51.046;6.406;2022-12-31T04:20:48;14.50;99.90
29575;DHT22;16507;51.046;6.406;2022-12-31T04:23:13;14.30;99.90
29575;DHT22;16507;51.046;6.406;2022-12-31T04:25:38;14.20;99.90
29575;DHT22;16507;51.046;6.406;2022-12-31T04:28:04;14.20;99.90
29575;DHT22;16507;51.046;6.406;2022-12-31T04:30:29;14.50;99.90
29575;DHT22;16507;51.046;6.406;2022-12-31T04:32:55;15.00;99.90
29575;DHT22;16507;51.046;6.406;2022-12-31T04:35:20;15.30;99.90
29575;DHT22;16507;51.046;6.406;2022-12-31T04:37:46;15.40;99.90
29575;DHT22;16507;51.046;6.406;2022-12-31T04:40:11;15.30;99.90
29575;DHT22;16507;51.046;6.406;2022-12-31T04:42:37;15.30;99.90
29575;DHT22;16507;51.046;6.406;2022-12-31T04:45:02;15.30;99.90
29575;DHT22;16507;51.046;6.406;2022-12-31T04:47:28;15.30;99.90
29575;DHT22;16507;51.046;6.406;2022-12-31T04:49:54;15.30;99.90
29575;DHT22;16507;51.046;6.406;2022-12-31T04:52:19;15.50;99.90
29575;DHT22;16507;51.046;6.406;2022-12-31T04:54:45;15.50;99.90
29575;DHT22;16507;51.046;6.406;2022-12-31T04:57:10;15.60;99.90
29575;DHT22;16507;51.046;6.406;2022-12-31T04:59:36;15.50;99.90
29575;DHT22;16507;51.046;6.406;2022-12-31T05:02:01;15.60;99.90
29575;DHT22;16507;51.046;6.406;2022-12-31T05:04:26;15.50;99.90
29575;DHT22;16507;51.046;6.406;2022-12-31T05:06:52;15.60;99.90
29575;DHT22;16507;51.046;6.406;2022-12-31T05:09:18;15.60;99.90
29575;DHT22;16507;51.046;6.406;2022-12-31T05:11:43;15.50;99.90
29575;DHT22;16507;51.046;6.406;2022-12-31T05:14:09;15.60;99.90
29575;DHT22;16507;51.046;6.406;2022-12-31T05:16:35;15.50;99.90
29575;DHT22;16507;51.046;6.406;2022-12-31T05:19:00;15.50;99.90
29575;DHT22;16507;51.046;6.406;2022-12-31T05:21:26;15.50;99.90
29575;DHT22;16507;51.046;6.406;2022-12-31T05:23:51;15.50;99.90
29575;DHT22;16507;51.046;6.406;2022-12-31T05:26:17;15.60;99.90
29575;DHT22;16507;51.046;6.406;2022-12-31T05:28:42;15.60;99.90
29575;DHT22;16507;51.046;6.406;2022-12-31T05:31:08;15.60;99.90
29575;DHT22;16507;51.046;6.406;2022-12-31T05:33:33;15.60;99.90
29575;DHT22;16507;51.046;6.406;2022-12-31T05:35:59;15.30;99.90
29575;DHT22;16507;51.046;6.406;2022-12-31T05:38:24;14.70;99.90
29575;DHT22;16507;51.046;6.406;2022-12-31T05:40:57;14.80;99.90
29575;DHT22;16507;51.046;6.406;2022-12-31T05:43:23;15.20;99.90
29575;DHT22;16507;51.046;6.406;2022-12-31T05:45:48;15.40;99.90
29575;DHT22;16507;51.046;6.406;2022-12-31T05:48:14;15.50;99.90
29575;DHT22;16507;51.046;6.406;2022-12-31T05:50:39;15.50;99.90
29575;DHT22;16507;51.046;6.406;2022-12-31T05:53:05;15.60;99.90
29575;DHT22;16507;51.046;6.406;2022-12-31T05:55:30;15.60;99.90
29575;DHT22;16507;51.046;6.406;2022-12-31T05:57:56;15.60;99.90
29575;DHT22;16507;51.046;6.406;2022-12-31T06:00:21;15.60;99.90
29575;DHT22;16507;51.046;6.406;2022-12-31T06:02:46;15.70;99.90
29575;DHT22;16507;51.046;6.406;2022-12-31T06:05:12;15.80;99.90
29575;DHT22;16507;51.046;6.406;2022-12-31T06:07:38;15.80;99.90
29575;DHT22;16507;51.046;6.406;2022-12-31T06:10:03;15.90;99.90
29575;DHT22;16507;51.046;6.406;2022-12-31T06:12:29;15.90;99.90
29575;DHT22;16507;51.046;6.406;2022-12-31T06:14:55;15.90;99.90
29575;DHT22;16507;51.046;6.406;2022-12-31T06:17:20;15.80;99.90
29575;DHT22;16507;51.046;6.406;2022-12-31T06:19:46;15.80;99.90
29575;DHT22;16507;51.046;6.406;2022-12-31T06:22:12;15.80;99.90
29575;DHT22;16507;51.046;6.406;2022-12-31T06:24:38;15.80;99.90
29575;DHT22;16507;51.046;6.406;2022-12-31T06:27:03;15.80;99.90
29575;DHT22;16507;51.046;6.406;2022-12-31T06:29:29;15.90;99.90
29575;DHT22;16507;51.046;6.406;2022-12-31T06:31:54;15.90;99.90
29575;DHT22;16507;51.046;6.406;2022-12-31T06:34:20;15.90;99.90
29575;DHT22;16507;51.046;6.406;2022-12-31T06:36:45;15.90;99.90
29575;DHT22;16507;51.046;6.406;2022-12-31T06:39:11;15.80;99.90
29575;DHT22;16507;51.046;6.406;2022-12-31T06:41:36;15.70;99.90
29575;DHT22;16507;51.046;6.406;2022-12-31T06:44:01;15.70;99.90
29575;DHT22;16507;51.046;6.406;2022-12-31T06:46:27;15.60;99.90
29575;DHT22;16507;51.046;6.406;2022-12-31T06:48:52;15.70;99.90
29575;DHT22;16507;51.046;6.406;2022-12-31T06:51:18;15.70;99.90
29575;DHT22;16507;51.046;6.406;2022-12-31T06:53:44;15.70;99.90
29575;DHT22;16507;51.046;6.406;2022-12-31T06:58:42;15.80;99.90
29575;DHT22;16507;51.046;6.406;2022-12-31T07:03:55;15.80;99.90
29575;DHT22;16507;51.046;6.406;2022-12-31T07:06:37;15.80;99.90
29575;DHT22;16507;51.046;6.406;2022-12-31T07:09:09;15.00;99.90
29575;DHT22;16507;51.046;6.406;2022-12-31T07:11:41;14.50;99.90
29575;DHT22;16507;51.046;6.406;2022-12-31T07:16:48;14.70;99.90
29575;DHT22;16507;51.046;6.406;2022-12-31T07:21:42;15.40;99.90
29575;DHT22;16507;51.046;6.406;2022-12-31T07:24:08;15.60;99.90
29575;DHT22;16507;51.046;6.406;2022-12-31T07:26:41;15.70;99.90
29575;DHT22;16507;51.046;6.406;2022-12-31T07:31:50;16.00;99.90
29575;DHT22;16507;51.046;6.406;2022-12-31T07:37:02;16.10;99.90
29575;DHT22;16507;51.046;6.406;2022-12-31T07:39:34;16.10;99.90
29575;DHT22;16507;51.046;6.406;2022-12-31T07:44:52;16.10;99.90
29575;DHT22;16507;51.046;6.406;2022-12-31T07:49:46;16.00;99.90
29575;DHT22;16507;51.046;6.406;2022-12-31T07:52:11;16.00;99.90
29575;DHT22;16507;51.046;6.406;2022-12-31T07:54:37;16.00;99.90
29575;DHT22;16507;51.046;6.406;2022-12-31T07:57:03;16.00;99.90
29575;DHT22;16507;51.046;6.406;2022-12-31T08:04:48;14.90;99.90
29575;DHT22;16507;51.046;6.406;2022-12-31T08:07:27;15.20;99.90
29575;DHT22;16507;51.046;6.406;2022-12-31T08:09:58;15.50;99.90
29575;DHT22;16507;51.046;6.406;2022-12-31T08:12:26;15.90;99.90
29575;DHT22;16507;51.046;6.406;2022-12-31T08:14:52;16.00;99.90
29575;DHT22;16507;51.046;6.406;2022-12-31T08:17:18;16.00;99.90
29575;DHT22;16507;51.046;6.406;2022-12-31T08:19:44;15.80;99.90
29575;DHT22;16507;51.046;6.406;2022-12-31T08:24:57;15.90;99.90
29575;DHT22;16507;51.046;6.406;2022-12-31T08:32:23;16.10;99.90
29575;DHT22;16507;51.046;6.406;2022-12-31T08:37:39;16.20;99.90
29575;DHT22;16507;51.046;6.406;2022-12-31T08:40:22;16.20;99.90
29575;DHT22;16507;51.046;6.406;2022-12-31T08:45:47;16.30;99.90
29575;DHT22;16507;51.046;6.406;2022-12-31T08:50:57;16.40;99.90
29575;DHT22;16507;51.046;6.406;2022-12-31T08:53:23;16.40;99.90
29575;DHT22;16507;51.046;6.406;2022-12-31T08:55:50;16.50;99.90
29575;DHT22;16507;51.046;6.406;2022-12-31T09:01:01;16.40;99.90
29575;DHT22;16507;51.046;6.406;2022-12-31T09:08:46;16.40;99.90
29575;DHT22;16507;51.046;6.406;2022-12-31T09:11:18;16.40;99.90
29575;DHT22;16507;51.046;6.406;2022-12-31T09:18:41;16.60;99.90
29575;DHT22;16507;51.046;6.406;2022-12-31T09:21:10;16.50;99.90
29575;DHT22;16507;51.046;6.406;2022-12-31T09:23:36;16.50;99.90
29575;DHT22;16507;51.046;6.406;2022-12-31T09:26:06;16.60;99.90
29575;DHT22;16507;51.046;6.406;2022-12-31T09:31:16;16.60;99.90
29575;DHT22;16507;51.046;6.406;2022-12-31T09:36:21;16.80;99.90
29575;DHT22;16507;51.046;6.406;2022-12-31T09:38:54;16.80;99.90
29575;DHT22;16507;51.046;6.406;2022-12-31T09:41:31;16.80;99.90
29575;DHT22;16507;51.046;6.406;2022-12-31T09:44:12;16.80;99.90
29575;DHT22;16507;51.046;6.406;2022-12-31T09:52:06;16.70;99.90
29575;DHT22;16507;51.046;6.406;2022-12-31T10:10:08;16.80;99.90
29575;DHT22;16507;51.046;6.406;2022-12-31T10:15:18;16.80;99.90
29575;DHT22;16507;51.046;6.406;2022-12-31T10:18:10;16.80;99.90
29575;DHT22;16507;51.046;6.406;2022-12-31T10:20:46;17.00;99.90
29575;DHT22;16507;51.046;6.406;2022-12-31T10:31:23;16.90;99.90
29575;DHT22;16507;51.046;6.406;2022-12-31T10:33:50;17.00;99.90
29575;DHT22;16507;51.046;6.406;2022-12-31T10:38:56;16.90;99.90
29575;DHT22;16507;51.046;6.406;2022-12-31T10:44:00;16.90;99.90
29575;DHT22;16507;51.046;6.406;2022-12-31T10:46:36;16.90;99.90
29575;DHT22;16507;51.046;6.406;2022-12-31T10:51:45;16.80;99.90
29575;DHT22;16507;51.046;6.406;2022-12-31T10:57:06;16.90;99.90
29575;DHT22;16507;51.046;6.406;2022-12-31T11:18:20;17.50;99.90
29575;DHT22;16507;51.046;6.406;2022-12-31T11:31:19;17.30;99.90
29575;DHT22;16507;51.046;6.406;2022-12-31T11:39:16;17.10;99.90
29575;DHT22;16507;51.046;6.406;2022-12-31T11:41:49;17.10;99.90
29575;DHT22;16507;51.046;6.406;2022-12-31T11:54:48;17.00;99.90
29575;DHT22;16507;51.046;6.406;2022-12-31T11:59:42;17.20;99.90
29575;DHT22;16507;51.046;6.406;2022-12-31T12:04:37;17.20;99.90
29575;DHT22;16507;51.046;6.406;2022-12-31T12:07:02;17.20;99.90
29575;DHT22;16507;51.046;6.406;2022-12-31T12:09:28;17.20;99.90
29575;DHT22;16507;51.046;6.406;2022-12-31T12:11:59;17.20;99.90
29575;DHT22;16507;51.046;6.406;2022-12-31T12:16:53;17.20;99.90
29575;DHT22;16507;51.046;6.406;2022-12-31T12:19:19;17.10;99.90
29575;DHT22;16507;51.046;6.406;2022-12-31T12:21:46;17.00;99.90
29575;DHT22;16507;51.046;6.406;2022-12-31T12:24:23;17.00;99.90
29575;DHT22;16507;51.046;6.406;2022-12-31T12:26:49;17.00;99.90
29575;DHT22;16507;51.046;6.406;2022-12-31T12:29:19;16.90;99.90
29575;DHT22;16507;51.046;6.406;2022-12-31T12:31:59;16.90;99.90
29575;DHT22;16507;51.046;6.406;2022-12-31T12:34:29;16.90;99.90
29575;DHT22;16507;51.046;6.406;2022-12-31T12:36:55;17.00;99.90
29575;DHT22;16507;51.046;6.406;2022-12-31T12:39:21;17.10;99.90
29575;DHT22;16507;51.046;6.406;2022-12-31T12:41:57;17.10;99.90
29575;DHT22;16507;51.046;6.406;2022-12-31T12:44:23;17.10;99.90
29575;DHT22;16507;51.046;6.406;2022-12-31T12:46:48;17.10;99.90
29575;DHT22;16507;51.046;6.406;2022-12-31T12:49:26;17.00;99.90
29575;DHT22;16507;51.046;6.406;2022-12-31T12:54:34;17.00;99.90
29575;DHT22;16507;51.046;6.406;2022-12-31T13:07:43;15.90;99.90
29575;DHT22;16507;51.046;6.406;2022-12-31T13:10:32;16.30;99.90
29575;DHT22;16507;51.046;6.406;2022-12-31T13:15:38;16.20;99.90
29575;DHT22;16507;51.046;6.406;2022-12-31T13:18:11;16.30;99.90
29575;DHT22;16507;51.046;6.406;2022-12-31T13:20:57;16.30;99.90
29575;DHT22;16507;51.046;6.406;2022-12-31T13:23:30;16.40;99.90
29575;DHT22;16507;51.046;6.406;2022-12-31T13:26:04;16.30;99.90
29575;DHT22;16507;51.046;6.406;2022-12-31T13:28:31;16.30;99.90
29575;DHT22;16507;51.046;6.406;2022-12-31T13:30:58;16.20;99.90
29575;DHT22;16507;51.046;6.406;2022-12-31T13:33:25;16.10;99.90
29575;DHT22;16507;51.046;6.406;2022-12-31T13:35:55;15.90;99.90
29575;DHT22;16507;51.046;6.406;2022-12-31T13:38:26;15.80;99.90
29575;DHT22;16507;51.046;6.406;2022-12-31T13:48:35;15.50;99.90
29575;DHT22;16507;51.046;6.406;2022-12-31T13:56:35;15.40;99.90
29575;DHT22;16507;51.046;6.406;2022-12-31T13:59:06;15.30;99.90
29575;DHT22;16507;51.046;6.406;2022-12-31T14:01:57;15.30;99.90
29575;DHT22;16507;51.046;6.406;2022-12-31T14:09:29;15.30;99.90
29575;DHT22;16507;51.046;6.406;2022-12-31T14:12:02;15.20;99.90
29575;DHT22;16507;51.046;6.406;2022-12-31T14:15:17;15.20;99.90
29575;DHT22;16507;51.046;6.406;2022-12-31T14:17:25;15.20;99.90
29575;DHT22;16507;51.046;6.406;2022-12-31T14:24:45;15.10;99.90
29575;DHT22;16507;51.046;6.406;2022-12-31T14:27:21;15.10;99.90
29575;DHT22;16507;51.046;6.406;2022-12-31T14:32:22;15.10;99.90
29575;DHT22;16507;51.046;6.406;2022-12-31T14:39:44;15.10;99.90
29575;DHT22;16507;51.046;6.406;2022-12-31T14:44:59;15.00;99.90
29575;DHT22;16507;51.046;6.406;2022-12-31T14:52:49;15.00;99.90
29575;DHT22;16507;51.046;6.406;2022-12-31T14:55:25;14.90;99.90
29575;DHT22;16507;51.046;6.406;2022-12-31T14:57:51;14.90;99.90
29575;DHT22;16507;51.046;6.406;2022-12-31T15:02:49;14.80;99.90
29575;DHT22;16507;51.046;6.406;2022-12-31T15:05:17;14.80;99.90
29575;DHT22;16507;51.046;6.406;2022-12-31T15:07:48;14.90;99.90
29575;DHT22;16507;51.046;6.406;2022-12-31T15:13:09;15.10;99.90
29575;DHT22;16507;51.046;6.406;2022-12-31T15:23:22;15.30;99.90
29575;DHT22;16507;51.046;6.406;2022-12-31T15:25:51;15.30;99.90
29575;DHT22;16507;51.046;6.406;2022-12-31T15:28:30;15.40;99.90
29575;DHT22;16507;51.046;6.406;2022-12-31T15:30:59;15.50;99.90
29575;DHT22;16507;51.046;6.406;2022-12-31T15:33:28;15.40;99.90
29575;DHT22;16507;51.046;6.406;2022-12-31T15:35:55;15.40;99.90
29575;DHT22;16507;51.046;6.406;2022-12-31T15:38:29;15.40;99.90
29575;DHT22;16507;51.046;6.406;2022-12-31T15:40:55;15.40;99.90
29575;DHT22;16507;51.046;6.406;2022-12-31T15:45:55;15.30;99.90
29575;DHT22;16507;51.046;6.406;2022-12-31T15:48:34;15.20;99.90
29575;DHT22;16507;51.046;6.406;2022-12-31T15:51:01;15.30;99.90
29575;DHT22;16507;51.046;6.406;2022-12-31T15:53:37;15.30;99.90
29575;DHT22;16507;51.046;6.406;2022-12-31T15:56:03;15.30;99.90
29575;DHT22;16507;51.046;6.406;2022-12-31T15:58:30;15.20;99.90
29575;DHT22;16507;51.046;6.406;2022-12-31T16:03:29;15.20;99.90
29575;DHT22;16507;51.046;6.406;2022-12-31T16:05:59;15.10;99.90
29575;DHT22;16507;51.046;6.406;2022-12-31T16:08:26;15.10;99.90
29575;DHT22;16507;51.046;6.406;2022-12-31T16:10:53;15.00;99.90
29575;DHT22;16507;51.046;6.406;2022-12-31T16:13:20;14.80;99.90
29575;DHT22;16507;51.046;6.406;2022-12-31T16:16:17;14.80;99.90
29575;DHT22;16507;51.046;6.406;2022-12-31T16:18:36;14.80;99.90
29575;DHT22;16507;51.046;6.406;2022-12-31T16:21:02;14.80;99.90
29575;DHT22;16507;51.046;6.406;2022-12-31T16:23:28;14.80;99.90
29575;DHT22;16507;51.046;6.406;2022-12-31T16:25:54;14.80;99.90
29575;DHT22;16507;51.046;6.406;2022-12-31T16:28:25;14.80;99.90
29575;DHT22;16507;51.046;6.406;2022-12-31T16:30:58;14.90;99.90
29575;DHT22;16507;51.046;6.406;2022-12-31T16:33:24;14.90;99.90
29575;DHT22;16507;51.046;6.406;2022-12-31T16:35:54;14.90;99.90
29575;DHT22;16507;51.046;6.406;2022-12-31T16:38:21;14.90;99.90
29575;DHT22;16507;51.046;6.406;2022-12-31T16:43:46;15.00;99.90
29575;DHT22;16507;51.046;6.406;2022-12-31T16:46:24;15.00;99.90
29575;DHT22;16507;51.046;6.406;2022-12-31T16:48:55;15.00;99.90
29575;DHT22;16507;51.046;6.406;2022-12-31T16:51:23;14.90;99.90
29575;DHT22;16507;51.046;6.406;2022-12-31T16:53:49;14.80;99.90
29575;DHT22;16507;51.046;6.406;2022-12-31T16:56:20;14.90;99.90
29575;DHT22;16507;51.046;6.406;2022-12-31T16:58:47;14.90;99.90
29575;DHT22;16507;51.046;6.406;2022-12-31T17:01:16;15.00;99.90
29575;DHT22;16507;51.046;6.406;2022-12-31T17:03:47;15.00;99.90
29575;DHT22;16507;51.046;6.406;2022-12-31T17:06:15;14.90;99.90
29575;DHT22;16507;51.046;6.406;2022-12-31T17:13:43;15.00;99.90
29575;DHT22;16507;51.046;6.406;2022-12-31T17:16:16;15.10;99.90
29575;DHT22;16507;51.046;6.406;2022-12-31T17:18:42;15.10;99.90
29575;DHT22;16507;51.046;6.406;2022-12-31T17:21:08;15.10;99.90
29575;DHT22;16507;51.046;6.406;2022-12-31T17:23:35;15.20;99.90
29575;DHT22;16507;51.046;6.406;2022-12-31T17:26:09;15.10;99.90
29575;DHT22;16507;51.046;6.406;2022-12-31T17:28:42;15.00;99.90
29575;DHT22;16507;51.046;6.406;2022-12-31T17:36:29;15.00;99.90
29575;DHT22;16507;51.046;6.406;2022-12-31T17:38:55;15.00;99.90
29575;DHT22;16507;51.046;6.406;2022-12-31T17:41:34;15.10;99.90
29575;DHT22;16507;51.046;6.406;2022-12-31T17:43:59;15.10;99.90
29575;DHT22;16507;51.046;6.406;2022-12-31T17:46:25;15.10;99.90
29575;DHT22;16507;51.046;6.406;2022-12-31T17:48:52;15.00;99.90
29575;DHT22;16507;51.046;6.406;2022-12-31T17:51:19;14.90;99.90
29575;DHT22;16507;51.046;6.406;2022-12-31T17:53:45;14.80;99.90
29575;DHT22;16507;51.046;6.406;2022-12-31T17:56:11;14.80;99.90
29575;DHT22;16507;51.046;6.406;2022-12-31T18:01:08;14.90;99.90
29575;DHT22;16507;51.046;6.406;2022-12-31T18:03:33;14.80;99.90
29575;DHT22;16507;51.046;6.406;2022-12-31T18:05:59;14.80;99.90
29575;DHT22;16507;51.046;6.406;2022-12-31T18:08:24;14.80;99.90
29575;DHT22;16507;51.046;6.406;2022-12-31T18:10:50;14.80;99.90
29575;DHT22;16507;51.046;6.406;2022-12-31T18:13:18;15.00;99.90
29575;DHT22;16507;51.046;6.406;2022-12-31T18:15:44;14.90;99.90
29575;DHT22;16507;51.046;6.406;2022-12-31T18:18:17;15.00;99.90
29575;DHT22;16507;51.046;6.406;2022-12-31T18:20:43;15.00;99.90
29575;DHT22;16507;51.046;6.406;2022-12-31T18:23:15;15.20;99.90
29575;DHT22;16507;51.046;6.406;2022-12-31T18:25:41;15.20;99.90
29575;DHT22;16507;51.046;6.406;2022-12-31T18:28:07;15.10;99.90
29575;DHT22;16507;51.046;6.406;2022-12-31T18:30:33;15.10;99.90
29575;DHT22;16507;51.046;6.406;2022-12-31T18:32:59;15.10;99.90
29575;DHT22;16507;51.046;6.406;2022-12-31T18:35:24;15.00;99.90
29575;DHT22;16507;51.046;6.406;2022-12-31T18:37:50;14.90;99.90
29575;DHT22;16507;51.046;6.406;2022-12-31T18:40:16;14.90;99.90
29575;DHT22;16507;51.046;6.406;2022-12-31T18:42:41;14.90;99.90
29575;DHT22;16507;51.046;6.406;2022-12-31T18:45:18;15.00;98.60
29575;DHT22;16507;51.046;6.406;2022-12-31T18:47:43;15.00;95.90
29575;DHT22;16507;51.046;6.406;2022-12-31T18:50:12;15.00;95.80
29575;DHT22;16507;51.046;6.406;2022-12-31T18:52:39;15.00;93.70
29575;DHT22;16507;51.046;6.406;2022-12-31T18:55:25;15.00;92.20
29575;DHT22;16507;51.046;6.406;2022-12-31T18:57:51;15.10;89.70
29575;DHT22;16507;51.046;6.406;2022-12-31T19:00:16;15.10;87.10
29575;DHT22;16507;51.046;6.406;2022-12-31T19:02:42;15.30;80.30
29575;DHT22;16507;51.046;6.406;2022-12-31T19:05:18;15.30;79.40
29575;DHT22;16507;51.046;6.406;2022-12-31T19:07:45;15.30;76.80
29575;DHT22;16507;51.046;6.406;2022-12-31T19:10:11;15.30;75.00
29575;DHT22;16507;51.046;6.406;2022-12-31T19:12:37;15.40;70.70
29575;DHT22;16507;51.046;6.406;2022-12-31T19:15:09;15.40;70.20
29575;DHT22;16507;51.046;6.406;2022-12-31T19:17:37;15.50;68.50
29575;DHT22;16507;51.046;6.406;2022-12-31T19:20:03;15.40;69.20
29575;DHT22;16507;51.046;6.406;2022-12-31T19:22:29;15.40;68.90
29575;DHT22;16507;51.046;6.406;2022-12-31T19:24:54;15.40;69.00
29575;DHT22;16507;51.046;6.406;2022-12-31T19:27:20;15.30;69.60
29575;DHT22;16507;51.046;6.406;2022-12-31T19:29:45;15.30;70.10
29575;DHT22;16507;51.046;6.406;2022-12-31T19:32:10;15.40;65.50
29575;DHT22;16507;51.046;6.406;2022-12-31T19:34:36;15.40;67.50
29575;DHT22;16507;51.046;6.406;2022-12-31T19:37:01;15.60;62.00
29575;DHT22;16507;51.046;6.406;2022-12-31T19:39:27;15.60;63.30
29575;DHT22;16507;51.046;6.406;2022-12-31T19:41:52;15.40;62.70
29575;DHT22;16507;51.046;6.406;2022-12-31T19:44:18;15.50;61.50
29575;DHT22;16507;51.046;6.406;2022-12-31T19:46:44;15.60;59.10
29575;DHT22;16507;51.046;6.406;2022-12-31T19:49:13;15.90;52.70
29575;DHT22;16507;51.046;6.406;2022-12-31T19:51:38;16.10;49.60